Time;durP1;ratioP1;P1;durP2;ratioP2;P2;SDS_P1;SDS_P2;PMS_P1;PMS_P2;Temp;Humidity;BMP_temperature;BMP_pressure;BME280_temperature;BME280_humidity;BME280_pressure;Samples;Min_cycle;Max_cycle;Signal;HPM_P1;HPM_P2
2022/10/20 00:01:58;;;;;;;1.52;1.02;;;18.60;44.10;;;;;;6164567;23;20225;-82
2022/10/20 00:04:24;;;;;;;3.42;1.38;;;18.60;44.10;;;;;;6188989;23;20231;-82
2022/10/20 00:06:50;;;;;;;1.90;1.17;;;18.60;44.10;;;;;;6215429;23;20153;-83
2022/10/20 00:09:16;;;;;;;1.20;1.10;;;18.50;44.10;;;;;;6188968;23;20213;-81
2022/10/20 00:11:44;;;;;;;1.70;1.13;;;18.60;44.10;;;;;;6165189;23;20146;-82
2022/10/20 00:14:10;;;;;;;1.60;1.15;;;18.60;44.10;;;;;;6215695;23;20217;-82
2022/10/20 00:16:36;;;;;;;1.52;1.27;;;18.60;44.20;;;;;;6189086;23;20173;-82
2022/10/20 00:19:03;;;;;;;1.98;1.15;;;18.60;44.20;;;;;;6188696;23;20490;-82
2022/10/20 00:21:29;;;;;;;1.23;1.13;;;18.50;44.30;;;;;;6189166;23;20624;-81
2022/10/20 00:23:55;;;;;;;2.13;1.38;;;18.60;44.20;;;;;;6215721;23;20158;-82
2022/10/20 00:26:22;;;;;;;2.22;1.42;;;18.60;44.20;;;;;;6188962;23;20135;-81
2022/10/20 00:28:49;;;;;;;1.90;1.08;;;18.50;44.20;;;;;;6164551;23;20146;-82
2022/10/20 00:31:15;;;;;;;1.73;1.25;;;18.50;44.30;;;;;;6188916;23;20153;-82
2022/10/20 00:33:41;;;;;;;1.75;1.20;;;18.50;44.30;;;;;;6191191;23;20200;-82
2022/10/20 00:36:08;;;;;;;1.40;1.30;;;18.60;44.40;;;;;;6167384;23;20467;-82
2022/10/20 00:38:34;;;;;;;1.55;1.23;;;18.50;44.30;;;;;;6167203;23;20157;-82
2022/10/20 00:41:02;;;;;;;1.20;1.10;;;18.50;44.40;;;;;;6167559;23;20157;-81
2022/10/20 00:43:46;;;;;;;1.92;1.30;;;18.50;44.40;;;;;;6192823;23;20157;-82
2022/10/20 00:46:14;;;;;;;2.22;1.02;;;18.50;44.40;;;;;;6192108;23;20149;-82
2022/10/20 00:48:40;;;;;;;1.77;0.95;;;18.50;44.40;;;;;;6192438;23;20221;-82
2022/10/20 00:51:06;;;;;;;1.70;1.15;;;18.50;44.40;;;;;;6218782;23;20579;-82
2022/10/20 00:53:33;;;;;;;2.00;1.08;;;18.50;44.50;;;;;;6218640;23;20220;-81
2022/10/20 00:55:59;;;;;;;1.70;1.23;;;18.50;44.50;;;;;;6218610;23;20349;-82
2022/10/20 00:58:25;;;;;;;1.30;1.20;;;18.50;44.50;;;;;;6218753;23;20130;-82
2022/10/20 01:00:52;;;;;;;1.30;1.20;;;18.50;44.60;;;;;;6192221;23;20489;-81
2022/10/20 01:03:22;;;;;;;1.13;1.00;;;18.40;44.50;;;;;;6191944;23;20194;-82
2022/10/20 01:05:48;;;;;;;1.85;0.95;;;18.50;44.60;;;;;;6192795;23;20217;-82
2022/10/20 01:08:14;;;;;;;1.10;1.00;;;18.50;44.70;;;;;;6192058;23;20466;-82
2022/10/20 01:10:46;;;;;;;1.33;1.10;;;18.50;44.60;;;;;;6191961;23;20639;-85
2022/10/20 01:13:19;;;;;;;1.13;1.02;;;18.50;44.60;;;;;;6192419;23;20142;-81
2022/10/20 01:15:58;;;;;;;1.35;1.08;;;18.50;44.70;;;;;;6218531;23;20551;-82
2022/10/20 01:18:48;;;;;;;1.80;1.20;;;18.50;44.80;;;;;;6191878;23;20555;-82
2022/10/20 01:21:31;;;;;;;1.77;1.10;;;18.50;44.80;;;;;;6196439;23;20160;-81
2022/10/20 01:24:36;;;;;;;2.05;1.08;;;18.40;44.60;;;;;;6218554;23;20252;-82
2022/10/20 01:27:26;;;;;;;2.13;1.02;;;18.50;44.80;;;;;;6218217;23;20189;-81
2022/10/20 01:30:08;;;;;;;1.67;1.10;;;18.50;44.80;;;;;;6192433;23;20131;-82
2022/10/20 01:32:43;;;;;;;1.25;1.05;;;18.50;44.80;;;;;;6192017;23;20138;-82
2022/10/20 01:35:27;;;;;;;1.10;1.00;;;18.50;44.80;;;;;;6192263;23;20145;-82
2022/10/20 01:38:02;;;;;;;1.20;1.10;;;18.40;44.80;;;;;;6191690;23;20452;-83
2022/10/20 01:40:31;;;;;;;2.15;1.10;;;18.50;45.00;;;;;;6191934;23;20521;-82
2022/10/20 01:43:00;;;;;;;1.10;1.00;;;18.50;44.90;;;;;;6218379;23;20134;-82
2022/10/20 01:45:29;;;;;;;1.40;1.15;;;18.50;45.00;;;;;;6190131;23;20161;-82
2022/10/20 01:47:55;;;;;;;1.67;1.10;;;18.40;44.90;;;;;;6190261;23;20142;-82
2022/10/20 01:50:21;;;;;;;2.88;1.20;;;18.40;45.00;;;;;;6190314;23;20170;-82
2022/10/20 01:52:47;;;;;;;1.20;0.93;;;18.40;45.00;;;;;;6190579;23;20569;-82
2022/10/20 01:55:14;;;;;;;1.98;1.25;;;18.40;45.00;;;;;;6190638;23;20598;-81
2022/10/20 01:58:11;;;;;;;1.20;1.10;;;18.40;45.00;;;;;;6216706;23;20221;-82
2022/10/20 02:00:37;;;;;;;2.53;0.98;;;18.40;45.00;;;;;;6190569;23;20457;-82
2022/10/20 02:03:33;;;;;;;2.05;1.20;;;18.40;45.10;;;;;;6216938;23;20165;-82
2022/10/20 02:06:16;;;;;;;1.40;1.20;;;18.40;45.10;;;;;;6197384;23;20577;-82
2022/10/20 02:08:51;;;;;;;1.00;0.90;;;18.40;45.10;;;;;;6190546;23;20201;-82
2022/10/20 02:11:34;;;;;;;1.40;1.30;;;18.40;45.10;;;;;;6217020;23;20133;-83
2022/10/20 02:14:01;;;;;;;1.70;1.10;;;18.40;45.20;;;;;;6190509;23;20564;-82
2022/10/20 02:16:29;;;;;;;1.13;1.02;;;18.40;45.20;;;;;;6216986;23;20577;-82
2022/10/20 02:18:54;;;;;;;2.42;1.05;;;18.40;45.20;;;;;;6190054;23;20139;-82
2022/10/20 02:21:20;;;;;;;1.00;1.00;;;18.40;45.30;;;;;;6164947;23;20153;-82
2022/10/20 02:23:47;;;;;;;1.20;1.10;;;18.30;45.20;;;;;;6189956;23;20158;-82
2022/10/20 02:26:14;;;;;;;1.98;1.02;;;18.40;45.30;;;;;;6190028;23;20135;-82
2022/10/20 02:28:43;;;;;;;1.48;0.98;;;18.40;45.30;;;;;;6190375;23;20614;-82
2022/10/20 02:31:09;;;;;;;1.00;0.90;;;18.40;45.30;;;;;;6216536;23;20134;-82
2022/10/20 02:33:36;;;;;;;1.17;1.08;;;18.40;45.30;;;;;;6216438;23;20161;-82
2022/10/20 02:36:04;;;;;;;1.10;1.10;;;18.40;45.40;;;;;;6190267;23;20192;-82
2022/10/20 02:38:30;;;;;;;1.58;1.10;;;18.40;45.40;;;;;;6189896;23;20142;-82
2022/10/20 02:40:56;;;;;;;0.88;0.85;;;18.40;45.40;;;;;;6189750;23;20592;-82
2022/10/20 02:43:22;;;;;;;1.73;1.08;;;18.40;45.40;;;;;;6190295;23;20489;-82
2022/10/20 02:45:48;;;;;;;0.90;0.90;;;18.40;45.40;;;;;;6190136;23;20138;-81
2022/10/20 02:48:13;;;;;;;1.98;1.10;;;18.40;45.40;;;;;;6189871;23;20436;-82
2022/10/20 02:50:39;;;;;;;1.40;0.90;;;18.40;45.50;;;;;;6190109;23;20142;-82
2022/10/20 02:53:05;;;;;;;1.55;1.20;;;18.30;45.50;;;;;;6189709;23;20134;-82
2022/10/20 02:55:31;;;;;;;1.02;0.93;;;18.40;45.50;;;;;;6165224;23;20157;-82
2022/10/20 02:57:57;;;;;;;1.10;1.00;;;18.40;45.50;;;;;;6189628;23;20161;-81
2022/10/20 03:00:23;;;;;;;1.30;1.20;;;18.40;45.60;;;;;;6189934;23;20551;-82
2022/10/20 03:02:50;;;;;;;1.25;0.90;;;18.30;45.50;;;;;;6164913;23;20157;-82
2022/10/20 03:05:17;;;;;;;1.23;1.00;;;18.30;45.50;;;;;;6215837;23;20196;-82
2022/10/20 03:07:43;;;;;;;1.10;1.00;;;18.30;45.50;;;;;;6216098;23;20209;-82
2022/10/20 03:10:09;;;;;;;1.65;0.93;;;18.40;45.60;;;;;;6216092;23;20157;-81
2022/10/20 03:12:35;;;;;;;1.13;0.90;;;18.30;45.60;;;;;;6189560;23;20181;-82
2022/10/20 03:15:01;;;;;;;1.42;1.00;;;18.40;45.70;;;;;;6189557;23;20138;-82
2022/10/20 03:17:27;;;;;;;1.10;1.00;;;18.30;45.60;;;;;;6189417;23;20481;-82
2022/10/20 03:19:53;;;;;;;1.20;1.00;;;18.30;45.70;;;;;;6189492;23;20562;-82
2022/10/20 03:22:19;;;;;;;0.77;0.70;;;18.30;45.70;;;;;;6216050;23;20131;-82
2022/10/20 03:24:45;;;;;;;1.33;1.00;;;18.40;45.70;;;;;;6189436;23;20540;-82
2022/10/20 03:27:11;;;;;;;1.80;0.90;;;18.30;45.70;;;;;;6189421;23;20126;-84
2022/10/20 03:29:36;;;;;;;1.25;1.02;;;18.30;45.70;;;;;;6189333;23;20150;-82
2022/10/20 03:32:02;;;;;;;1.17;0.98;;;18.40;45.70;;;;;;6189347;23;20134;-81
2022/10/20 03:34:28;;;;;;;0.88;0.82;;;18.30;45.70;;;;;;6189578;23;20582;-81
2022/10/20 03:36:54;;;;;;;0.80;0.80;;;18.30;45.70;;;;;;6216100;23;20211;-82
2022/10/20 03:39:20;;;;;;;1.15;0.90;;;18.30;45.70;;;;;;6215800;23;20165;-82
2022/10/20 03:41:46;;;;;;;1.48;1.05;;;18.30;45.70;;;;;;6189268;23;20447;-82
2022/10/20 03:44:12;;;;;;;1.08;0.98;;;18.30;45.70;;;;;;6164228;23;20185;-82
2022/10/20 03:46:38;;;;;;;1.00;0.90;;;18.40;45.80;;;;;;6189839;23;20176;-82
2022/10/20 03:49:04;;;;;;;0.80;0.77;;;18.30;45.80;;;;;;6189206;23;20204;-82
2022/10/20 03:51:30;;;;;;;0.95;0.90;;;18.30;45.80;;;;;;6215642;23;20141;-82
2022/10/20 03:53:56;;;;;;;1.00;0.90;;;18.30;45.80;;;;;;6216077;23;20130;-82
2022/10/20 03:56:22;;;;;;;1.27;0.80;;;18.40;45.90;;;;;;6164810;23;20146;-83
2022/10/20 03:58:48;;;;;;;0.98;0.93;;;18.30;45.80;;;;;;6189081;23;20529;-82
2022/10/20 04:01:15;;;;;;;2.38;1.00;;;18.30;45.90;;;;;;6164205;23;20233;-82
2022/10/20 04:03:41;;;;;;;1.35;1.10;;;18.30;45.90;;;;;;6188586;23;20695;-82
2022/10/20 04:06:06;;;;;;;0.80;0.70;;;18.20;45.80;;;;;;6189481;23;20158;-82
2022/10/20 04:08:32;;;;;;;0.90;0.73;;;18.30;46.00;;;;;;6215137;23;20555;-81
2022/10/20 04:10:58;;;;;;;1.00;0.90;;;18.30;46.00;;;;;;6189966;23;20150;-82
2022/10/20 04:13:24;;;;;;;0.85;0.80;;;18.20;45.90;;;;;;6164149;23;20158;-81
2022/10/20 04:15:50;;;;;;;1.55;1.00;;;18.40;46.00;;;;;;6188981;23;20138;-81
2022/10/20 04:18:16;;;;;;;1.40;1.00;;;18.30;46.00;;;;;;6189134;23;20473;-82
2022/10/20 04:20:42;;;;;;;1.02;0.80;;;18.30;46.00;;;;;;6188906;23;20154;-82
2022/10/20 04:23:08;;;;;;;0.85;0.85;;;18.30;46.00;;;;;;6189307;23;20191;-82
2022/10/20 04:25:34;;;;;;;1.05;0.90;;;18.30;46.00;;;;;;6189555;23;20185;-82
2022/10/20 04:28:00;;;;;;;0.90;0.80;;;18.30;46.00;;;;;;6215506;23;20697;-82
2022/10/20 04:30:26;;;;;;;2.00;0.93;;;18.30;46.00;;;;;;6189086;23;20150;-82
2022/10/20 04:32:52;;;;;;;1.23;0.95;;;18.30;46.00;;;;;;6215503;23;20130;-82
2022/10/20 04:35:18;;;;;;;1.10;0.88;;;18.30;46.10;;;;;;6188919;23;20142;-82
2022/10/20 04:37:44;;;;;;;1.63;0.98;;;18.30;46.00;;;;;;6188820;23;20158;-82
2022/10/20 04:40:10;;;;;;;0.88;0.80;;;18.30;46.10;;;;;;6188890;23;20189;-81
2022/10/20 04:42:36;;;;;;;0.85;0.75;;;18.30;46.10;;;;;;6188928;23;20570;-82
2022/10/20 04:45:02;;;;;;;1.77;1.00;;;18.30;46.10;;;;;;6215392;23;20228;-82
2022/10/20 04:47:32;;;;;;;0.95;0.75;;;18.30;46.10;;;;;;6188900;23;20138;-82
2022/10/20 04:49:58;;;;;;;0.98;0.88;;;18.20;46.10;;;;;;6215320;23;20130;-82
2022/10/20 04:52:24;;;;;;;1.42;1.00;;;18.30;46.10;;;;;;6188697;23;20154;-82
2022/10/20 04:54:50;;;;;;;1.10;1.00;;;18.30;46.20;;;;;;6215337;23;20138;-81
2022/10/20 04:57:15;;;;;;;0.70;0.70;;;18.30;46.20;;;;;;6215299;23;20135;-82
2022/10/20 04:59:41;;;;;;;1.02;0.93;;;18.20;46.20;;;;;;6189403;23;20237;-82
2022/10/20 05:02:07;;;;;;;0.93;0.88;;;18.30;46.20;;;;;;6189097;23;20158;-82
2022/10/20 05:04:33;;;;;;;1.08;0.90;;;18.30;46.20;;;;;;6214959;23;20524;-81
2022/10/20 05:06:59;;;;;;;0.98;0.82;;;18.20;46.00;;;;;;6163719;23;20249;-82
2022/10/20 05:09:25;;;;;;;1.45;1.00;;;18.30;46.00;;;;;;6188647;23;20157;-82
2022/10/20 05:11:52;;;;;;;1.13;1.00;;;18.30;45.60;;;;;;6188821;23;20624;-82
2022/10/20 05:14:18;;;;;;;1.67;0.90;;;18.40;45.40;;;;;;6164066;23;20150;-81
2022/10/20 05:16:44;;;;;;;0.73;0.70;;;18.40;44.80;;;;;;6188437;23;20150;-82
2022/10/20 05:19:10;;;;;;;0.88;0.88;;;18.50;44.60;;;;;;6216278;23;20622;-82
2022/10/20 05:21:36;;;;;;;0.90;0.68;;;18.50;44.30;;;;;;6190665;23;20161;-82
2022/10/20 05:24:03;;;;;;;0.70;0.70;;;18.50;44.10;;;;;;6190501;23;20485;-82
2022/10/20 05:26:33;;;;;;;0.90;0.70;;;18.50;43.90;;;;;;6190594;23;20208;-82
2022/10/20 05:28:59;;;;;;;0.88;0.80;;;18.50;43.90;;;;;;6166093;23;20154;-82
2022/10/20 05:31:25;;;;;;;1.15;0.80;;;18.50;43.70;;;;;;6190621;23;20134;-82
2022/10/20 05:33:52;;;;;;;0.82;0.60;;;18.50;43.60;;;;;;6217028;23;20161;-82
2022/10/20 05:36:19;;;;;;;0.77;0.70;;;18.60;43.40;;;;;;6191001;23;20142;-82
2022/10/20 05:38:52;;;;;;;0.98;0.90;;;18.50;43.50;;;;;;6191767;23;20566;-84
2022/10/20 05:41:20;;;;;;;1.10;0.77;;;18.60;43.40;;;;;;6190535;23;20240;-83
2022/10/20 05:43:49;;;;;;;1.13;0.70;;;18.50;43.10;;;;;;6190792;23;20166;-82
2022/10/20 05:46:16;;;;;;;0.80;0.80;;;18.60;43.10;;;;;;6139349;23;20634;-83
2022/10/20 05:48:43;;;;;;;1.10;1.00;;;18.60;43.20;;;;;;6163225;23;20215;-82
2022/10/20 05:51:13;;;;;;;1.88;0.98;;;18.60;43.20;;;;;;6139630;23;20509;-82
2022/10/20 05:53:40;;;;;;;0.70;0.70;;;18.50;42.80;;;;;;6165345;23;20164;-83
2022/10/20 05:56:06;;;;;;;1.30;0.82;;;18.50;42.90;;;;;;6139666;23;20161;-82
2022/10/20 05:58:32;;;;;;;0.80;0.80;;;18.60;42.90;;;;;;6217204;23;20173;-82
2022/10/20 06:01:10;;;;;;;0.90;0.60;;;18.60;42.80;;;;;;6216694;23;20566;-82
2022/10/20 06:03:36;;;;;;;0.65;0.65;;;18.60;42.90;;;;;;6189711;23;20588;-83
2022/10/20 06:06:02;;;;;;;0.75;0.75;;;18.60;42.60;;;;;;6189485;23;20252;-82
2022/10/20 06:08:33;;;;;;;0.70;0.70;;;18.60;42.60;;;;;;6188376;23;20175;-82
2022/10/20 06:11:08;;;;;;;0.98;0.88;;;18.60;42.60;;;;;;6162512;23;20150;-82
2022/10/20 06:13:38;;;;;;;0.80;0.80;;;18.50;42.50;;;;;;6162929;23;20589;-82
2022/10/20 06:16:10;;;;;;;0.93;0.90;;;18.60;42.50;;;;;;6164360;23;20162;-82
2022/10/20 06:18:41;;;;;;;1.30;0.93;;;18.60;42.50;;;;;;6139541;23;20236;-82
2022/10/20 06:21:14;;;;;;;0.85;0.85;;;18.50;42.40;;;;;;6116981;23;20154;-82
2022/10/20 06:23:43;;;;;;;0.65;0.65;;;18.60;42.40;;;;;;6164946;23;20192;-82
2022/10/20 06:26:16;;;;;;;0.80;0.80;;;18.60;42.30;;;;;;6189647;23;20150;-82
2022/10/20 06:28:46;;;;;;;0.70;0.70;;;18.60;42.30;;;;;;6165279;23;20233;-83
2022/10/20 06:31:18;;;;;;;0.70;0.70;;;18.60;42.30;;;;;;6115357;23;20604;-82
2022/10/20 06:33:48;;;;;;;1.02;0.77;;;18.60;42.30;;;;;;6116255;23;20454;-82
2022/10/20 06:36:17;;;;;;;0.95;0.80;;;18.60;42.30;;;;;;6165094;23;20225;-82
2022/10/20 06:38:46;;;;;;;1.67;0.95;;;18.60;42.30;;;;;;6164393;23;20309;-82
2022/10/20 06:41:16;;;;;;;0.50;0.50;;;18.60;42.30;;;;;;6139442;23;20206;-82
2022/10/20 06:43:46;;;;;;;0.70;0.70;;;18.60;42.30;;;;;;6115343;23;20185;-84
2022/10/20 06:46:16;;;;;;;1.20;0.77;;;18.60;42.40;;;;;;6139755;23;20154;-82
2022/10/20 06:48:45;;;;;;;1.75;0.70;;;18.60;42.30;;;;;;6164476;23;20150;-82
2022/10/20 06:51:15;;;;;;;0.60;0.60;;;18.60;42.50;;;;;;6189064;23;20150;-82
2022/10/20 06:53:44;;;;;;;2.80;0.82;;;18.60;42.50;;;;;;6115651;23;20154;-82
2022/10/20 06:56:17;;;;;;;0.73;0.70;;;18.60;43.10;;;;;;6164638;23;20237;-82
2022/10/20 06:58:46;;;;;;;1.10;0.90;;;18.60;42.50;;;;;;6116928;23;20204;-82
2022/10/20 07:01:17;;;;;;;2.67;0.75;;;18.60;42.40;;;;;;6115368;23;20154;-82
2022/10/20 07:03:43;;;;;;;2.33;0.60;;;18.60;42.40;;;;;;6115320;23;20197;-82
2022/10/20 07:06:13;;;;;;;4.10;0.88;;;18.60;42.50;;;;;;6165109;23;20174;-82
2022/10/20 07:08:41;;;;;;;1.10;0.70;;;18.60;42.40;;;;;;6164757;23;20173;-81
2022/10/20 07:11:12;;;;;;;4.13;0.95;;;18.70;42.40;;;;;;6139550;23;20293;-82
2022/10/20 07:13:40;;;;;;;2.47;0.80;;;18.70;42.40;;;;;;6140200;23;20181;-81
2022/10/20 07:16:11;;;;;;;5.47;0.85;;;18.70;42.50;;;;;;6164030;23;20233;-82
2022/10/20 07:18:38;;;;;;;1.65;0.95;;;18.70;42.40;;;;;;6163748;23;20240;-82
2022/10/20 07:21:10;;;;;;;4.18;0.85;;;18.70;42.50;;;;;;6139805;23;20169;-81
2022/10/20 07:23:37;;;;;;;4.18;0.80;;;18.80;42.50;;;;;;6115358;23;20185;-82
2022/10/20 07:26:09;;;;;;;3.60;0.70;;;18.80;42.50;;;;;;6189243;23;20459;-81
2022/10/20 07:28:38;;;;;;;6.55;1.02;;;18.80;42.40;;;;;;6117503;23;20154;-82
2022/10/20 07:31:10;;;;;;;5.93;0.85;;;18.80;42.40;;;;;;6115985;23;20154;-82
2022/10/20 07:33:37;;;;;;;6.32;0.93;;;18.80;42.70;;;;;;6092160;23;20161;-82
2022/10/20 07:36:17;;;;;;;4.63;1.05;;;18.80;42.40;;;;;;6163976;23;20181;-82
2022/10/20 07:38:45;;;;;;;5.75;0.70;;;18.80;42.70;;;;;;6091357;23;20164;-82
2022/10/20 07:41:13;;;;;;;7.53;0.98;;;18.80;42.60;;;;;;6163253;23;20160;-82
2022/10/20 07:43:40;;;;;;;2.53;0.80;;;18.80;42.50;;;;;;6138510;23;20545;-82
2022/10/20 07:46:07;;;;;;;1.38;0.73;;;18.80;42.30;;;;;;6114363;23;20478;-82
2022/10/20 07:48:34;;;;;;;1.67;0.80;;;18.80;42.60;;;;;;6138861;23;20150;-82
2022/10/20 07:51:27;;;;;;;3.42;0.70;;;18.80;42.30;;;;;;6138505;23;20241;-82
2022/10/20 07:53:59;;;;;;;4.03;0.80;;;18.80;42.60;;;;;;6162918;23;20157;-82
2022/10/20 07:56:28;;;;;;;1.75;0.47;;;18.80;42.60;;;;;;6187616;23;20160;-80
2022/10/20 07:58:55;;;;;;;1.77;0.90;;;18.80;42.60;;;;;;6164900;23;20166;-82
2022/10/20 08:01:22;;;;;;;3.65;0.77;;;18.90;42.40;;;;;;6116397;23;20241;-82
2022/10/20 08:03:47;;;;;;;4.45;0.60;;;18.80;42.40;;;;;;6110976;23;20257;-81
2022/10/20 08:06:14;;;;;;;2.95;0.70;;;18.80;42.40;;;;;;6136443;23;20578;-83
2022/10/20 08:08:40;;;;;;;2.25;0.45;;;18.90;42.80;;;;;;6158922;23;20478;-82
2022/10/20 08:11:06;;;;;;;2.92;0.57;;;18.90;42.80;;;;;;6185647;23;20134;-82
2022/10/20 08:13:32;;;;;;;1.55;0.57;;;19.00;42.80;;;;;;6159624;23;20178;-82
2022/10/20 08:15:58;;;;;;;2.30;0.60;;;19.00;42.60;;;;;;6159095;23;20567;-82
2022/10/20 08:18:24;;;;;;;0.93;0.40;;;19.00;42.50;;;;;;6159218;23;20237;-81
2022/10/20 08:20:50;;;;;;;3.05;0.50;;;19.00;42.60;;;;;;6185500;23;20149;-81
2022/10/20 08:23:15;;;;;;;4.20;0.80;;;19.10;42.70;;;;;;6159285;23;20135;-82
2022/10/20 08:25:42;;;;;;;2.17;0.63;;;19.00;42.60;;;;;;6158949;23;20573;-83
2022/10/20 08:28:08;;;;;;;4.03;0.80;;;19.10;42.70;;;;;;6185146;23;20185;-82
2022/10/20 08:30:34;;;;;;;3.30;0.55;;;19.10;43.30;;;;;;6160802;23;20142;-83
2022/10/20 08:33:00;;;;;;;1.92;0.50;;;19.00;42.80;;;;;;6161980;23;20139;-82
2022/10/20 08:35:26;;;;;;;1.73;0.70;;;19.00;42.80;;;;;;6161866;23;20285;-82
2022/10/20 08:37:52;;;;;;;1.15;0.50;;;19.10;42.80;;;;;;6161203;23;20458;-82
2022/10/20 08:40:23;;;;;;;2.13;0.60;;;19.10;42.90;;;;;;6161390;23;20157;-82
2022/10/20 08:42:49;;;;;;;1.67;0.63;;;19.10;42.90;;;;;;6161164;23;20622;-81
2022/10/20 08:45:16;;;;;;;1.67;0.50;;;19.10;43.00;;;;;;6160893;23;20208;-82
2022/10/20 08:47:46;;;;;;;0.93;0.70;;;19.10;43.00;;;;;;6187047;23;20130;-82
2022/10/20 08:50:15;;;;;;;3.33;0.73;;;19.00;43.10;;;;;;6160448;23;20155;-81
2022/10/20 08:52:45;;;;;;;1.42;0.88;;;19.00;43.20;;;;;;6164212;23;20127;-83
2022/10/20 08:55:27;;;;;;;3.47;0.73;;;19.10;43.40;;;;;;6138972;23;20221;-81
2022/10/20 08:57:59;;;;;;;2.22;0.40;;;19.10;43.30;;;;;;6160890;23;20173;-82
2022/10/20 09:00:29;;;;;;;2.50;0.70;;;19.10;43.20;;;;;;6136505;23;20159;-82
2022/10/20 09:02:55;;;;;;;1.55;0.55;;;19.10;43.20;;;;;;6160667;23;20151;-82
2022/10/20 09:05:26;;;;;;;2.88;0.73;;;19.10;43.20;;;;;;6180779;23;20198;-81
2022/10/20 09:07:55;;;;;;;4.60;0.50;;;19.20;43.20;;;;;;6136147;23;20157;-81
2022/10/20 09:10:36;;;;;;;0.82;0.40;;;19.20;43.10;;;;;;6135767;23;20174;-81
2022/10/20 09:13:10;;;;;;;2.40;0.50;;;19.20;43.10;;;;;;6160337;23;20582;-81
2022/10/20 09:15:38;;;;;;;2.50;0.88;;;19.20;43.00;;;;;;6138188;23;20155;-81
2022/10/20 09:18:09;;;;;;;2.78;0.80;;;19.20;43.00;;;;;;6160426;23;20161;-81
2022/10/20 09:20:46;;;;;;;1.23;0.43;;;19.20;43.00;;;;;;6136925;23;20161;-81
2022/10/20 09:23:16;;;;;;;2.17;0.43;;;19.20;43.00;;;;;;6139433;23;20166;-81
2022/10/20 09:25:45;;;;;;;1.60;0.57;;;19.20;43.00;;;;;;6139375;23;20150;-82
2022/10/20 09:28:28;;;;;;;1.35;0.50;;;19.20;43.00;;;;;;6137822;23;20673;-81
2022/10/20 09:30:56;;;;;;;3.33;0.50;;;19.20;43.00;;;;;;6112562;23;20494;-81
2022/10/20 09:33:31;;;;;;;2.70;0.60;;;19.20;42.90;;;;;;6136669;23;20155;-81
2022/10/20 09:36:03;;;;;;;2.08;0.50;;;19.20;43.10;;;;;;6137980;23;20153;-81
2022/10/20 09:38:32;;;;;;;1.55;0.60;;;19.20;42.80;;;;;;6111699;23;20154;-81
2022/10/20 09:41:12;;;;;;;0.73;0.50;;;19.20;43.00;;;;;;6160394;23;20155;-82
2022/10/20 09:43:53;;;;;;;3.20;0.55;;;19.20;42.90;;;;;;6136575;23;20178;-81
2022/10/20 09:46:23;;;;;;;2.35;0.40;;;19.30;42.80;;;;;;6140093;23;20150;-81
2022/10/20 09:48:50;;;;;;;1.85;0.50;;;19.30;42.80;;;;;;6135368;23;20161;-81
2022/10/20 09:51:22;;;;;;;3.97;0.50;;;19.30;42.90;;;;;;6110659;23;20147;-81
2022/10/20 09:53:59;;;;;;;0.57;0.43;;;19.30;43.00;;;;;;6137145;23;20162;-81
2022/10/20 09:56:31;;;;;;;4.10;0.80;;;19.20;42.90;;;;;;6135685;23;20617;-81
2022/10/20 09:59:05;;;;;;;1.58;0.50;;;19.30;42.90;;;;;;6136696;23;20616;-81
2022/10/20 10:01:32;;;;;;;1.77;0.40;;;19.40;43.00;;;;;;6138523;23;20587;-82
2022/10/20 10:04:00;;;;;;;1.27;0.40;;;19.30;42.90;;;;;;6134636;23;20201;-81
2022/10/20 10:06:41;;;;;;;1.58;0.70;;;19.30;42.90;;;;;;6185166;23;20149;-81
2022/10/20 10:09:25;;;;;;;3.20;0.40;;;19.40;43.00;;;;;;6187694;23;20581;-82
2022/10/20 10:12:15;;;;;;;1.65;0.40;;;19.30;42.80;;;;;;6186367;23;20579;-82
2022/10/20 10:14:52;;;;;;;1.77;0.75;;;19.30;42.90;;;;;;6186010;23;20146;-82
2022/10/20 10:17:37;;;;;;;1.70;0.50;;;19.30;43.10;;;;;;6160380;23;20158;-82
2022/10/20 10:20:06;;;;;;;2.75;0.57;;;19.20;43.20;;;;;;6185465;23;20273;-82
2022/10/20 10:22:32;;;;;;;1.20;0.60;;;19.30;43.10;;;;;;6185538;23;20578;-82
2022/10/20 10:24:58;;;;;;;2.47;0.50;;;19.30;43.10;;;;;;6160273;23;20712;-82
2022/10/20 10:27:27;;;;;;;0.63;0.50;;;19.30;42.90;;;;;;6185748;23;20486;-81
2022/10/20 10:29:54;;;;;;;3.13;0.50;;;19.30;43.00;;;;;;6187200;23;20221;-81
2022/10/20 10:32:28;;;;;;;0.38;0.38;;;19.30;42.80;;;;;;6185320;23;20178;-82
2022/10/20 10:35:28;;;;;;;1.73;0.35;;;19.30;42.80;;;;;;6184858;23;20138;-81
2022/10/20 10:37:55;;;;;;;1.27;0.50;;;19.30;43.00;;;;;;6185624;23;20598;-82
2022/10/20 10:40:30;;;;;;;0.40;0.40;;;19.20;42.80;;;;;;6184846;23;20593;-82
2022/10/20 10:43:28;;;;;;;3.17;0.50;;;19.30;42.90;;;;;;6186457;23;20570;-82
2022/10/20 10:45:57;;;;;;;3.13;0.50;;;19.20;42.80;;;;;;6145841;23;20665;-82
2022/10/20 10:48:48;;;;;;;0.70;0.40;;;19.20;43.00;;;;;;6160434;23;20165;-82
2022/10/20 10:51:25;;;;;;;0.60;0.50;;;19.20;43.00;;;;;;6185345;23;20482;-82
2022/10/20 10:54:34;;;;;;;0.45;0.30;;;19.20;42.90;;;;;;6129681;23;20159;-82
2022/10/20 10:57:24;;;;;;;0.50;0.40;;;19.30;42.80;;;;;;6139158;23;20147;-82
2022/10/20 10:59:51;;;;;;;0.65;0.57;;;19.30;42.80;;;;;;6133192;23;20159;-81
2022/10/20 11:02:48;;;;;;;0.47;0.47;;;19.30;42.90;;;;;;6104813;23;20155;-83
2022/10/20 11:05:39;;;;;;;1.02;0.60;;;19.40;42.70;;;;;;6153479;23;20202;-82
2022/10/20 11:08:23;;;;;;;0.77;0.52;;;19.40;42.80;;;;;;6153806;23;20230;-82
2022/10/20 11:11:07;;;;;;;0.45;0.40;;;19.40;42.70;;;;;;6129322;23;20155;-81
2022/10/20 11:13:39;;;;;;;0.57;0.55;;;19.40;42.90;;;;;;6129889;23;20594;-81
2022/10/20 11:16:20;;;;;;;0.88;0.40;;;19.30;42.80;;;;;;6129233;23;20651;-82
2022/10/20 11:19:06;;;;;;;0.88;0.30;;;19.40;42.60;;;;;;6153768;23;20611;-82
2022/10/20 11:22:08;;;;;;;0.50;0.47;;;19.40;42.60;;;;;;6129214;23;20162;-82
2022/10/20 11:25:09;;;;;;;0.32;0.32;;;19.40;42.70;;;;;;6178236;23;20204;-82
2022/10/20 11:27:36;;;;;;;0.65;0.45;;;19.40;42.70;;;;;;6189893;23;20138;-83
2022/10/20 11:30:14;;;;;;;0.40;0.40;;;19.40;42.70;;;;;;6164964;23;20153;-82
2022/10/20 11:33:03;;;;;;;0.40;0.40;;;19.40;42.70;;;;;;6189752;23;20141;-82
2022/10/20 11:35:48;;;;;;;1.52;0.50;;;19.40;42.70;;;;;;6189942;23;20142;-82
2022/10/20 11:38:31;;;;;;;1.30;0.40;;;19.40;42.60;;;;;;6189656;23;20142;-82
2022/10/20 11:41:01;;;;;;;0.40;0.40;;;19.40;42.60;;;;;;6189268;23;20222;-82
2022/10/20 11:43:47;;;;;;;1.55;0.50;;;19.40;42.70;;;;;;6164572;23;20233;-82
2022/10/20 11:46:42;;;;;;;0.77;0.40;;;19.50;42.70;;;;;;6217443;23;20266;-84
2022/10/20 11:49:13;;;;;;;0.50;0.40;;;19.40;42.70;;;;;;6191199;23;20177;-83
2022/10/20 11:52:03;;;;;;;1.48;0.50;;;19.40;42.80;;;;;;6168286;23;20524;-84
2022/10/20 11:55:09;;;;;;;1.77;0.40;;;19.30;42.90;;;;;;6127548;23;20158;-83
2022/10/20 11:57:58;;;;;;;0.45;0.45;;;19.30;42.80;;;;;;6198339;23;20196;-83
2022/10/20 12:00:47;;;;;;;0.50;0.50;;;19.40;43.00;;;;;;6216076;23;20217;-83
2022/10/20 12:03:53;;;;;;;0.50;0.45;;;19.40;43.00;;;;;;6189877;23;20208;-83
2022/10/20 12:06:33;;;;;;;1.63;0.47;;;19.40;43.00;;;;;;6190054;23;20162;-83
2022/10/20 12:09:39;;;;;;;0.30;0.30;;;19.40;43.00;;;;;;6191874;23;20134;-82
2022/10/20 12:12:10;;;;;;;0.40;0.40;;;19.40;42.80;;;;;;6194977;23;20142;-83
2022/10/20 12:14:38;;;;;;;0.40;0.35;;;19.40;42.90;;;;;;6189761;23;20138;-83
2022/10/20 12:17:24;;;;;;;0.60;0.40;;;19.40;43.00;;;;;;6189919;23;20162;-83
2022/10/20 12:19:50;;;;;;;2.08;0.50;;;19.20;43.00;;;;;;6166609;23;20245;-83
2022/10/20 12:22:37;;;;;;;0.40;0.40;;;19.30;43.00;;;;;;6190382;23;20137;-83
2022/10/20 12:25:16;;;;;;;1.25;0.40;;;19.30;43.00;;;;;;6191402;23;20212;-82
2022/10/20 12:27:47;;;;;;;1.65;0.43;;;19.30;43.00;;;;;;6190321;23;20202;-82
2022/10/20 12:30:40;;;;;;;1.23;0.45;;;19.40;43.00;;;;;;6190297;23;20150;-82
2022/10/20 12:33:13;;;;;;;2.92;0.60;;;19.40;43.00;;;;;;6217121;23;20137;-82
2022/10/20 12:36:11;;;;;;;0.52;0.40;;;19.30;43.00;;;;;;6217424;23;20141;-83
2022/10/20 12:38:37;;;;;;;1.75;0.40;;;19.30;43.10;;;;;;6190787;23;20142;-80
2022/10/20 12:41:03;;;;;;;3.20;0.40;;;19.40;43.10;;;;;;6189287;23;20478;-80
2022/10/20 12:43:31;;;;;;;1.98;0.52;;;19.40;43.00;;;;;;6189327;23;20522;-80
2022/10/20 12:45:58;;;;;;;2.47;0.50;;;19.40;42.90;;;;;;6189761;23;20131;-81
2022/10/20 12:48:25;;;;;;;0.63;0.40;;;19.40;42.90;;;;;;6189503;23;20134;-80
2022/10/20 12:50:51;;;;;;;1.33;0.40;;;19.40;43.00;;;;;;6190438;23;20157;-82
2022/10/20 12:53:16;;;;;;;0.40;0.40;;;19.30;42.90;;;;;;6216928;23;20135;-84
2022/10/20 12:56:10;;;;;;;1.40;0.47;;;19.40;42.90;;;;;;6191716;23;20153;-84
2022/10/20 12:59:09;;;;;;;0.45;0.45;;;19.40;43.00;;;;;;6089996;23;20157;-83
2022/10/20 13:02:18;;;;;;;1.65;0.55;;;19.40;43.00;;;;;;6135212;23;20161;-85
2022/10/20 13:05:39;;;;;;;;;;;;;;;;;;;;;
2022/10/20 14:35:54;;;;;;;0.40;0.40;;;19.50;42.50;;;;;;6220536;22;20224;-80
2022/10/20 14:38:22;;;;;;;0.52;0.40;;;19.40;42.40;;;;;;6166169;23;20154;-80
2022/10/20 14:40:50;;;;;;;0.38;0.38;;;19.40;42.50;;;;;;6190275;23;20130;-80